X  Tanca Dades meteorològiques de l'aviació METAR     KDNN Dalton Municipal Airport
Temperatura
43°F Temperatura
43°F Rosada
100% Humitat



Vent
3 MPH
5 KM/H
1 M/S
3 NUS



330°
NNO
Condicions actuals

Llum Pluja, Boira Llum Pluja, Boira
Pressió 1023.42 (hPa) - 30.22 (inHg)
Visibilitat 2.5 (milla) - 4 (km)
Aeroport
Codi aeroport KDNN

Ubicació: Dalton Municipal Airport
Distància: 34 (mi)

Metar:
KDNN 021715Z AUTO 33003KT 2 1/2SM -RA BR OVC005 06/06 A3022 RMK AO2 P0000 T00600057

Temps: 02-02-2023 12:15 EST